Time;durP1;ratioP1;P1;durP2;ratioP2;P2;SDS_P1;SDS_P2;PMS_P1;PMS_P2;Temp;Humidity;BMP_temperature;BMP_pressure;BME280_temperature;BME280_humidity;BME280_pressure;Samples;Min_cycle;Max_cycle;Signal;HPM_P1;HPM_P2
2022/04/21 00:01:09;;;;;;;21.52;19.92;;;4.20;99.90;;;;;;4972915;28;20129;-74
2022/04/21 00:03:36;;;;;;;20.77;19.42;;;4.20;99.90;;;;;;4963230;28;20298;-74
2022/04/21 00:06:03;;;;;;;23.42;21.40;;;4.20;99.90;;;;;;4963949;28;20738;-74
2022/04/21 00:08:30;;;;;;;21.83;20.02;;;4.20;99.90;;;;;;4964641;28;20085;-74
2022/04/21 00:10:56;;;;;;;20.83;19.35;;;4.20;99.90;;;;;;4968360;28;20070;-74
2022/04/21 00:13:23;;;;;;;21.88;20.33;;;4.30;99.90;;;;;;4983751;28;20062;-74
2022/04/21 00:15:50;;;;;;;20.92;19.67;;;4.20;99.90;;;;;;4983554;28;20038;-75
2022/04/21 00:18:17;;;;;;;22.38;20.80;;;4.20;99.90;;;;;;4983260;28;20086;-74
2022/04/21 00:20:43;;;;;;;21.67;20.13;;;4.10;99.90;;;;;;4981553;28;20565;-75
2022/04/21 00:23:29;;;;;;;20.42;19.13;;;4.10;99.90;;;;;;4979836;28;20054;-75
2022/04/21 00:25:58;;;;;;;21.75;20.35;;;4.30;99.90;;;;;;4981969;28;20250;-74
2022/04/21 00:28:26;;;;;;;20.27;18.98;;;4.30;99.90;;;;;;4975522;28;20436;-73
2022/04/21 00:30:53;;;;;;;20.50;19.10;;;4.30;99.90;;;;;;4976096;28;20058;-73
2022/04/21 00:33:20;;;;;;;21.05;19.55;;;4.20;99.90;;;;;;4983679;28;20058;-74
2022/04/21 00:35:47;;;;;;;20.58;19.38;;;4.30;99.90;;;;;;4985286;28;20054;-73
2022/04/21 00:38:14;;;;;;;20.13;18.90;;;4.40;99.90;;;;;;4985888;28;20050;-75
2022/04/21 00:40:41;;;;;;;21.23;19.63;;;4.40;99.90;;;;;;4983751;28;20520;-75
2022/04/21 00:43:08;;;;;;;20.20;18.60;;;4.50;99.90;;;;;;4983846;28;20655;-74
2022/04/21 00:45:35;;;;;;;20.45;19.15;;;4.50;99.90;;;;;;4983616;28;20046;-75
2022/04/21 00:48:04;;;;;;;20.77;19.48;;;4.40;99.90;;;;;;4984319;28;20108;-75
2022/04/21 00:50:36;;;;;;;19.88;18.58;;;4.40;99.90;;;;;;4982687;28;20058;-75
2022/04/21 00:53:04;;;;;;;20.75;19.20;;;4.30;99.90;;;;;;4981824;28;20081;-75
2022/04/21 00:55:32;;;;;;;20.50;18.88;;;4.10;99.90;;;;;;4979382;28;20046;-75
2022/04/21 00:58:03;;;;;;;20.55;19.02;;;4.20;99.90;;;;;;4974519;28;20058;-73
2022/04/21 01:00:30;;;;;;;20.17;18.88;;;4.20;99.90;;;;;;4974531;28;20279;-75
2022/04/21 01:02:58;;;;;;;20.83;19.42;;;4.10;99.90;;;;;;4983445;28;20082;-75
2022/04/21 01:05:31;;;;;;;21.42;19.88;;;3.90;99.90;;;;;;4982319;28;20479;-73
2022/04/21 01:08:04;;;;;;;21.08;19.52;;;3.90;99.90;;;;;;4983695;28;20088;-74
2022/04/21 01:10:43;;;;;;;19.60;18.27;;;4.10;99.90;;;;;;4983780;28;20121;-75
2022/04/21 01:13:11;;;;;;;20.48;18.90;;;4.10;99.90;;;;;;4984760;28;20077;-73
2022/04/21 01:15:39;;;;;;;19.90;18.45;;;4.10;99.90;;;;;;4985157;28;20053;-75
2022/04/21 01:18:06;;;;;;;18.67;17.30;;;4.20;99.90;;;;;;4984335;28;20058;-73
2022/04/21 01:20:33;;;;;;;18.20;17.00;;;4.10;99.90;;;;;;4982999;28;20463;-73
2022/04/21 01:23:00;;;;;;;18.58;17.30;;;4.20;99.90;;;;;;4978241;28;20050;-75
2022/04/21 01:25:39;;;;;;;19.10;17.90;;;4.10;99.90;;;;;;4980234;28;20117;-73
2022/04/21 01:28:08;;;;;;;20.40;18.73;;;4.00;99.90;;;;;;4952022;28;20617;-74
2022/04/21 01:30:34;;;;;;;20.75;19.20;;;4.00;99.90;;;;;;4965031;28;20514;-77
2022/04/21 01:33:01;;;;;;;21.85;20.05;;;4.00;99.90;;;;;;4962297;28;20058;-75
2022/04/21 01:35:28;;;;;;;21.17;19.40;;;4.00;99.90;;;;;;4964140;28;20050;-75
2022/04/21 01:43:26;;;;;;;19.65;18.15;;;4.10;99.90;;;;;;4983875;28;19956;-76
2022/04/21 01:45:52;;;;;;;20.02;18.52;;;3.90;99.90;;;;;;4984110;28;20831;-76
2022/04/21 01:48:19;;;;;;;20.30;19.10;;;3.80;99.90;;;;;;4969435;28;20104;-76
2022/04/21 01:50:46;;;;;;;21.08;19.67;;;3.80;99.90;;;;;;4982101;28;20038;-75
2022/04/21 01:53:13;;;;;;;22.58;21.08;;;3.80;99.90;;;;;;4981890;28;20679;-76
2022/04/21 01:55:40;;;;;;;21.00;19.58;;;3.70;99.90;;;;;;4984331;28;20511;-76
2022/04/21 01:58:08;;;;;;;21.58;20.08;;;3.80;99.90;;;;;;4981551;28;20050;-76
2022/04/21 02:00:35;;;;;;;22.20;20.42;;;3.70;99.90;;;;;;4983850;28;20046;-76
2022/04/21 02:03:03;;;;;;;20.20;18.83;;;3.70;99.90;;;;;;4982225;28;20073;-76
2022/04/21 02:05:30;;;;;;;19.85;18.55;;;3.50;99.90;;;;;;4982317;28;20042;-76
2022/04/21 02:07:56;;;;;;;20.13;18.63;;;3.30;99.90;;;;;;4966426;28;20697;-76
2022/04/21 02:10:23;;;;;;;20.80;19.30;;;3.20;99.90;;;;;;4981566;28;20651;-76
2022/04/21 02:12:50;;;;;;;21.65;19.65;;;3.20;99.90;;;;;;4966144;28;20046;-76
2022/04/21 02:15:17;;;;;;;22.27;20.58;;;3.20;99.90;;;;;;4978157;28;20069;-75
2022/04/21 02:17:45;;;;;;;22.33;20.63;;;3.10;99.90;;;;;;4982570;28;20061;-75
2022/04/21 02:20:16;;;;;;;22.45;20.90;;;3.00;99.90;;;;;;4980752;28;20174;-75
2022/04/21 02:22:46;;;;;;;21.15;19.75;;;3.00;99.90;;;;;;4980790;28;20245;-76
2022/04/21 02:25:15;;;;;;;20.75;19.20;;;2.90;99.90;;;;;;4987853;28;20042;-75
2022/04/21 02:27:45;;;;;;;19.80;18.23;;;2.90;99.90;;;;;;4994034;28;20052;-75
2022/04/21 02:30:13;;;;;;;19.35;17.65;;;2.90;99.90;;;;;;4977373;28;20045;-75
2022/04/21 02:32:40;;;;;;;19.30;17.67;;;2.90;99.90;;;;;;4987480;28;20354;-75
2022/04/21 02:35:08;;;;;;;17.75;16.40;;;3.00;99.90;;;;;;4994614;28;20096;-74
2022/04/21 02:37:36;;;;;;;17.38;15.88;;;3.00;99.90;;;;;;4988961;28;20116;-75
2022/04/21 02:40:05;;;;;;;17.05;15.60;;;3.30;99.90;;;;;;5006453;28;20041;-75
2022/04/21 02:42:32;;;;;;;17.85;16.33;;;3.30;99.90;;;;;;4989302;28;20132;-75
2022/04/21 02:44:59;;;;;;;16.90;15.45;;;3.40;99.90;;;;;;5005319;28;20119;-75
2022/04/21 02:47:26;;;;;;;17.40;15.90;;;3.50;99.90;;;;;;5004886;28;20049;-75
2022/04/21 02:49:54;;;;;;;18.35;16.65;;;3.60;99.90;;;;;;4992587;28;20056;-75
2022/04/21 02:52:21;;;;;;;17.95;16.40;;;3.80;99.90;;;;;;4969881;28;20050;-75
2022/04/21 02:57:33;;;;;;;;;;;4.00;99.90;;;;;;4989135;28;20635;-75
2022/04/21 03:00:03;;;;;;;19.08;17.38;;;4.30;99.90;;;;;;4979937;28;20396;-75
2022/04/21 03:02:30;;;;;;;19.02;17.20;;;4.30;99.90;;;;;;4969540;28;20054;-75
2022/04/21 03:04:56;;;;;;;19.55;17.58;;;4.40;99.90;;;;;;4986953;28;20513;-75
2022/04/21 03:07:23;;;;;;;19.88;18.10;;;4.40;99.90;;;;;;4985498;28;20077;-75
2022/04/21 03:09:53;;;;;;;20.13;18.58;;;4.40;99.90;;;;;;4970070;28;20078;-75
2022/04/21 03:12:23;;;;;;;20.45;18.55;;;4.50;99.90;;;;;;5015079;28;20042;-75
2022/04/21 03:14:49;;;;;;;19.60;17.73;;;4.40;99.90;;;;;;5018168;28;20529;-75
2022/04/21 03:17:16;;;;;;;21.75;19.70;;;4.50;99.90;;;;;;4984435;28;20133;-75
2022/04/21 03:19:43;;;;;;;21.33;19.33;;;4.50;99.90;;;;;;5016528;28;20062;-75
2022/04/21 03:24:59;;;;;;;20.88;19.17;;;4.50;99.90;;;;;;4996685;28;20054;-75
2022/04/21 03:27:29;;;;;;;19.85;18.33;;;4.40;99.90;;;;;;4982348;28;20042;-75
2022/04/21 03:30:00;;;;;;;21.55;19.55;;;4.30;99.90;;;;;;4986844;28;20070;-74
2022/04/21 03:32:27;;;;;;;21.60;19.70;;;4.20;99.90;;;;;;4984298;28;20042;-76
2022/04/21 03:34:54;;;;;;;21.63;19.52;;;4.10;99.90;;;;;;4984688;28;20064;-75
2022/04/21 03:37:21;;;;;;;21.20;19.33;;;3.90;99.90;;;;;;4983312;28;20092;-75
2022/04/21 03:39:48;;;;;;;20.27;18.77;;;3.80;99.90;;;;;;4984044;28;20054;-75
2022/04/21 03:42:27;;;;;;;20.05;18.35;;;3.70;99.90;;;;;;4967573;28;20085;-75
2022/04/21 03:44:55;;;;;;;20.10;18.42;;;3.60;99.90;;;;;;4967555;28;20635;-75
2022/04/21 03:47:22;;;;;;;18.85;17.20;;;3.50;99.90;;;;;;4999765;28;20056;-76
2022/04/21 03:49:49;;;;;;;18.90;17.23;;;3.50;99.90;;;;;;4981937;28;20042;-75
2022/04/21 03:52:19;;;;;;;21.17;18.80;;;3.40;99.90;;;;;;4966886;28;20046;-75
2022/04/21 03:54:46;;;;;;;22.25;18.60;;;3.40;99.90;;;;;;4990513;28;20440;-75
2022/04/21 03:57:13;;;;;;;20.95;18.60;;;3.20;99.90;;;;;;4989678;28;20051;-75
2022/04/21 03:59:40;;;;;;;19.90;17.98;;;3.30;99.90;;;;;;4975247;28;20050;-75
2022/04/21 04:02:06;;;;;;;21.13;19.05;;;3.30;99.90;;;;;;4983501;28;20425;-74
2022/04/21 04:04:35;;;;;;;18.88;17.48;;;3.20;99.90;;;;;;4983829;28;20050;-74
2022/04/21 04:12:36;;;;;;;21.77;19.80;;;3.00;99.90;;;;;;4980336;28;20050;-75
2022/04/21 04:15:05;;;;;;;20.15;18.33;;;3.30;99.90;;;;;;4963757;28;20073;-75
2022/04/21 04:17:32;;;;;;;19.45;17.65;;;3.40;99.90;;;;;;4980293;28;20081;-74
2022/04/21 04:19:59;;;;;;;19.70;17.90;;;3.50;99.90;;;;;;4963753;28;20055;-75
2022/04/21 04:22:26;;;;;;;20.10;18.30;;;3.50;99.90;;;;;;4964841;28;20050;-75
2022/04/21 04:24:56;;;;;;;20.25;18.50;;;3.50;99.90;;;;;;4965466;28;20108;-75
2022/04/21 04:27:24;;;;;;;21.10;19.20;;;3.30;99.90;;;;;;4992306;28;20102;-75
2022/04/21 04:29:51;;;;;;;19.45;17.83;;;3.40;99.90;;;;;;4986697;28;20058;-75
2022/04/21 04:32:18;;;;;;;19.13;17.55;;;3.40;99.90;;;;;;5002091;28;20054;-75
2022/04/21 04:34:45;;;;;;;20.83;18.83;;;3.40;99.90;;;;;;4994376;28;20049;-75
2022/04/21 04:37:12;;;;;;;19.70;17.83;;;3.60;99.90;;;;;;4982886;28;20061;-75
2022/04/21 04:39:39;;;;;;;18.60;16.80;;;3.60;99.90;;;;;;4983173;28;20332;-75
2022/04/21 04:42:17;;;;;;;20.35;18.55;;;3.70;99.90;;;;;;4982986;28;20065;-76
2022/04/21 04:44:45;;;;;;;19.17;17.38;;;3.60;99.90;;;;;;4982865;28;20120;-75
2022/04/21 04:47:12;;;;;;;19.27;17.70;;;3.80;99.90;;;;;;4983052;28;20084;-75
2022/04/21 04:49:40;;;;;;;18.92;17.27;;;4.00;99.90;;;;;;4983993;28;20482;-75
2022/04/21 04:52:07;;;;;;;20.50;18.73;;;4.10;99.90;;;;;;4991065;28;20053;-76
2022/04/21 04:54:34;;;;;;;22.60;20.70;;;4.10;99.90;;;;;;4995770;28;20185;-76
2022/04/21 04:57:01;;;;;;;21.83;20.05;;;4.20;99.90;;;;;;4976382;28;20112;-75
2022/04/21 04:59:29;;;;;;;21.13;19.17;;;4.10;99.90;;;;;;4989047;28;20062;-75
2022/04/21 05:01:56;;;;;;;20.48;18.73;;;4.00;99.90;;;;;;4982901;28;20631;-75
2022/04/21 05:04:25;;;;;;;19.70;17.90;;;4.00;99.90;;;;;;4984540;28;20153;-76
2022/04/21 05:06:54;;;;;;;21.30;19.50;;;4.00;99.90;;;;;;4981839;28;20093;-74
2022/04/21 05:09:22;;;;;;;20.13;18.52;;;4.10;99.90;;;;;;4966899;28;20106;-74
2022/04/21 05:11:51;;;;;;;20.92;18.40;;;4.10;99.90;;;;;;4982336;28;20635;-76
2022/04/21 05:14:18;;;;;;;20.15;18.60;;;4.00;99.90;;;;;;4982795;28;20042;-75
2022/04/21 05:16:45;;;;;;;22.17;20.20;;;4.00;99.90;;;;;;4983654;28;20513;-75
2022/04/21 05:19:15;;;;;;;21.33;19.52;;;4.00;99.90;;;;;;4983205;28;20104;-75
2022/04/21 05:21:43;;;;;;;21.08;19.23;;;3.90;99.90;;;;;;4982262;28;20062;-75
2022/04/21 05:24:11;;;;;;;21.98;20.17;;;3.80;99.90;;;;;;4990325;28;20046;-75
2022/04/21 05:26:38;;;;;;;23.30;21.35;;;3.70;99.90;;;;;;4993387;28;20034;-75
2022/04/21 05:30:55;;;;;;;27.05;24.75;;;3.70;99.90;;;;;;4992791;28;20096;-76
2022/04/21 05:31:58;;;;;;;23.25;21.35;;;3.80;99.90;;;;;;5001515;28;20077;-75
2022/04/21 05:34:26;;;;;;;24.30;22.33;;;3.80;99.90;;;;;;4986616;28;20054;-76
2022/04/21 05:36:54;;;;;;;26.77;24.58;;;3.60;99.90;;;;;;4985984;28;20054;-75
2022/04/21 05:39:21;;;;;;;24.85;22.65;;;3.60;99.90;;;;;;4986305;28;20110;-75
2022/04/21 05:41:51;;;;;;;34.35;22.67;;;3.60;99.90;;;;;;5002059;28;20065;-75
2022/04/21 05:44:18;;;;;;;25.67;23.48;;;3.70;99.90;;;;;;4994879;28;20058;-75
2022/04/21 05:46:46;;;;;;;25.05;22.95;;;3.80;99.90;;;;;;4981600;28;20042;-75
2022/04/21 05:49:13;;;;;;;25.33;23.30;;;3.80;99.90;;;;;;4966633;28;20129;-75
2022/04/21 05:51:42;;;;;;;24.52;22.42;;;3.90;99.90;;;;;;4981751;28;20042;-74
2022/04/21 05:54:09;;;;;;;24.50;22.52;;;4.00;99.90;;;;;;4993995;28;20108;-75
2022/04/21 05:56:36;;;;;;;24.50;22.35;;;4.10;99.90;;;;;;4986715;28;20113;-75
2022/04/21 05:59:03;;;;;;;24.08;22.17;;;4.20;99.90;;;;;;4979321;28;20057;-75
2022/04/21 06:01:30;;;;;;;22.25;20.40;;;4.40;99.90;;;;;;4997429;28;20050;-75
2022/04/21 06:03:58;;;;;;;22.50;20.48;;;4.60;99.90;;;;;;4997761;28;20060;-75
2022/04/21 06:06:24;;;;;;;22.98;21.10;;;5.00;99.90;;;;;;5004473;28;20050;-75
2022/04/21 06:08:51;;;;;;;23.85;21.88;;;5.20;99.90;;;;;;5005758;28;20054;-76
2022/04/21 06:11:18;;;;;;;23.20;21.40;;;5.40;99.90;;;;;;5005691;28;20107;-74
2022/04/21 06:13:45;;;;;;;23.75;21.88;;;5.60;99.90;;;;;;5008051;28;20038;-76
2022/04/21 06:16:12;;;;;;;23.10;21.35;;;5.70;99.90;;;;;;4991144;28;20113;-75
2022/04/21 06:18:39;;;;;;;23.30;21.38;;;5.90;99.90;;;;;;4986331;28;20038;-75
2022/04/21 06:21:06;;;;;;;24.35;22.55;;;5.90;99.90;;;;;;4986936;28;20046;-76
2022/04/21 06:23:33;;;;;;;27.23;24.58;;;6.10;99.90;;;;;;5004055;28;20100;-75
2022/04/21 06:26:00;;;;;;;25.52;23.52;;;6.30;99.90;;;;;;5001565;28;20034;-75
2022/04/21 06:28:29;;;;;;;25.38;23.60;;;6.50;99.90;;;;;;4981898;28;20600;-75
2022/04/21 06:30:56;;;;;;;25.25;23.52;;;6.60;99.90;;;;;;4993985;28;20505;-75
2022/04/21 06:33:23;;;;;;;26.05;24.10;;;6.70;99.90;;;;;;4984295;28;20137;-75
2022/04/21 06:35:50;;;;;;;25.83;23.92;;;6.60;99.90;;;;;;4984171;28;20038;-75
2022/04/21 06:38:17;;;;;;;25.58;23.73;;;6.60;99.90;;;;;;4985113;28;20065;-75
2022/04/21 06:40:43;;;;;;;26.08;24.10;;;6.70;99.90;;;;;;4987418;28;20042;-76
2022/04/21 06:48:44;;;;;;;26.55;24.85;;;7.00;99.90;;;;;;5002586;28;20057;-76
2022/04/21 06:51:11;;;;;;;26.08;24.23;;;7.00;99.90;;;;;;4988706;28;20127;-76
2022/04/21 06:53:39;;;;;;;26.98;24.85;;;7.30;99.90;;;;;;4981792;28;20114;-75
2022/04/21 06:56:06;;;;;;;26.40;24.55;;;7.60;99.90;;;;;;4992346;28;20049;-75
2022/04/21 06:58:33;;;;;;;29.73;27.40;;;7.40;99.90;;;;;;5005963;28;20054;-75
2022/04/21 07:01:00;;;;;;;28.42;26.00;;;7.40;99.90;;;;;;5005276;28;20428;-75
2022/04/21 07:03:27;;;;;;;30.58;27.63;;;7.60;99.90;;;;;;5005472;28;20135;-75
2022/04/21 07:05:55;;;;;;;180.90;100.95;;;7.80;99.90;;;;;;5004423;28;20049;-75
2022/04/21 07:08:23;;;;;;;104.25;63.65;;;7.70;99.90;;;;;;5000367;28;20077;-75
2022/04/21 07:10:50;;;;;;;64.95;44.50;;;7.40;99.90;;;;;;5004278;28;20038;-75
2022/04/21 07:13:16;;;;;;;108.72;64.13;;;7.20;99.90;;;;;;4988225;28;20092;-75
2022/04/21 07:15:43;;;;;;;89.28;55.35;;;7.10;99.90;;;;;;5001833;28;20046;-75
2022/04/21 07:18:12;;;;;;;38.38;34.35;;;7.30;99.90;;;;;;4988215;28;20050;-75
2022/04/21 07:20:39;;;;;;;31.90;28.98;;;7.30;99.90;;;;;;4999553;28;20057;-75
2022/04/21 07:23:06;;;;;;;41.15;37.55;;;7.30;99.90;;;;;;4999642;28;20081;-75
2022/04/21 07:25:33;;;;;;;26.60;24.63;;;7.30;99.90;;;;;;4984910;28;20077;-76
2022/04/21 07:28:00;;;;;;;26.48;24.50;;;7.20;99.90;;;;;;4997590;28;20057;-75
2022/04/21 07:30:27;;;;;;;25.80;24.10;;;7.30;99.90;;;;;;4988281;28;20049;-75
2022/04/21 07:32:54;;;;;;;28.35;26.33;;;7.30;99.90;;;;;;5006271;28;20045;-76
2022/04/21 07:35:22;;;;;;;27.83;25.85;;;7.40;99.90;;;;;;4988204;28;20291;-74
2022/04/21 07:37:49;;;;;;;27.02;25.13;;;7.60;99.90;;;;;;4985124;28;20064;-75
2022/04/21 07:40:16;;;;;;;27.75;25.60;;;7.60;99.90;;;;;;5014411;28;20074;-75
2022/04/21 07:42:44;;;;;;;27.17;25.27;;;7.40;99.90;;;;;;4999015;28;20047;-76
2022/04/21 07:45:11;;;;;;;28.48;26.15;;;7.40;99.90;;;;;;4986926;28;20042;-75
2022/04/21 07:47:38;;;;;;;27.60;25.40;;;7.10;99.90;;;;;;4990280;28;20051;-75
2022/04/21 07:50:05;;;;;;;27.73;25.70;;;7.00;99.90;;;;;;4983053;28;20104;-75
2022/04/21 07:55:24;;;;;;;27.42;25.33;;;7.00;99.90;;;;;;4985133;28;20046;-75
2022/04/21 07:57:53;;;;;;;26.83;24.85;;;6.80;99.90;;;;;;4984543;28;20061;-76
2022/04/21 08:00:20;;;;;;;26.58;24.40;;;6.80;99.90;;;;;;4985391;28;20133;-75
2022/04/21 08:02:48;;;;;;;27.60;25.65;;;6.80;99.90;;;;;;4966262;28;20113;-76
2022/04/21 08:05:18;;;;;;;25.98;24.13;;;6.80;99.90;;;;;;4982254;28;20061;-76
2022/04/21 08:07:45;;;;;;;26.20;24.48;;;6.90;99.90;;;;;;4990125;28;20068;-74
2022/04/21 08:10:19;;;;;;;27.23;25.13;;;7.10;99.90;;;;;;5002376;28;20050;-76
2022/04/21 08:12:51;;;;;;;26.63;24.83;;;7.10;99.90;;;;;;5002384;28;20042;-75
2022/04/21 08:15:22;;;;;;;27.35;25.38;;;7.20;99.90;;;;;;4998523;28;20112;-75
2022/04/21 08:17:49;;;;;;;27.05;25.00;;;7.10;99.90;;;;;;4973240;28;20073;-74
2022/04/21 08:20:16;;;;;;;28.65;26.17;;;7.30;99.90;;;;;;5002436;28;20200;-75
2022/04/21 08:22:44;;;;;;;28.17;25.77;;;7.50;99.90;;;;;;5000396;28;20595;-76
2022/04/21 08:34:07;;;;;;;27.73;25.35;;;7.70;99.90;;;;;;4981548;28;20060;-76
2022/04/21 08:36:34;;;;;;;27.85;25.73;;;7.70;99.90;;;;;;4982207;28;20042;-75
2022/04/21 08:39:01;;;;;;;27.48;25.30;;;7.50;99.90;;;;;;4975326;28;20081;-75
2022/04/21 08:41:35;;;;;;;30.15;27.67;;;7.40;99.90;;;;;;4984562;28;20049;-75
2022/04/21 08:44:03;;;;;;;29.63;27.33;;;7.40;99.90;;;;;;4996041;28;20858;-76
2022/04/21 08:46:32;;;;;;;29.10;26.90;;;7.40;99.90;;;;;;4997607;28;20042;-76
2022/04/21 08:49:01;;;;;;;28.65;26.60;;;7.50;99.90;;;;;;4990888;28;20420;-76
2022/04/21 08:51:28;;;;;;;32.15;29.50;;;7.40;99.90;;;;;;5000932;28;20166;-75
2022/04/21 08:53:55;;;;;;;29.40;27.23;;;7.40;99.90;;;;;;4992909;28;20089;-75
2022/04/21 08:56:22;;;;;;;29.77;27.58;;;7.50;99.90;;;;;;4988370;28;20637;-75
2022/04/21 08:58:49;;;;;;;28.48;26.45;;;7.50;99.90;;;;;;4967501;28;20520;-75
2022/04/21 09:01:17;;;;;;;28.95;26.67;;;7.30;99.90;;;;;;4982043;28;20612;-75
2022/04/21 09:03:48;;;;;;;28.42;26.30;;;7.30;99.90;;;;;;4981525;28;20060;-76
2022/04/21 09:06:15;;;;;;;28.30;26.33;;;7.40;99.90;;;;;;4998657;28;20072;-76
2022/04/21 09:08:42;;;;;;;27.20;25.13;;;7.70;99.90;;;;;;4981249;28;20050;-76
2022/04/21 09:11:11;;;;;;;28.67;26.63;;;7.70;99.90;;;;;;4999330;28;20140;-76
2022/04/21 09:13:40;;;;;;;29.48;27.38;;;7.90;99.90;;;;;;5000070;28;20042;-75
2022/04/21 09:16:09;;;;;;;29.95;27.70;;;8.20;99.90;;;;;;5000434;28;20058;-75
2022/04/21 09:18:37;;;;;;;29.88;27.63;;;8.30;99.90;;;;;;4989913;28;20054;-76
2022/04/21 09:21:14;;;;;;;30.05;27.85;;;8.30;99.90;;;;;;4980795;28;20120;-76
2022/04/21 09:23:45;;;;;;;28.23;25.98;;;8.40;99.90;;;;;;4967709;28;20054;-76
2022/04/21 09:26:14;;;;;;;30.70;27.90;;;8.50;99.90;;;;;;4984517;28;20097;-75
2022/04/21 09:28:56;;;;;;;29.38;27.27;;;8.40;99.90;;;;;;4981141;28;20128;-76
2022/04/21 09:31:25;;;;;;;29.10;26.90;;;8.40;99.90;;;;;;4980183;28;20616;-77
2022/04/21 09:33:52;;;;;;;29.15;26.63;;;8.70;99.90;;;;;;4976496;28;20556;-76
2022/04/21 09:36:19;;;;;;;29.48;27.25;;;8.90;99.90;;;;;;4999669;28;20046;-76
2022/04/21 09:39:01;;;;;;;29.23;27.35;;;8.90;99.90;;;;;;4983530;28;20058;-76
2022/04/21 09:41:29;;;;;;;29.38;27.20;;;9.40;99.90;;;;;;5003750;28;20104;-76
2022/04/21 09:47:07;;;;;;;30.65;28.42;;;9.80;99.90;;;;;;4994139;28;20128;-76
2022/04/21 09:49:41;;;;;;;31.42;29.42;;;9.70;99.90;;;;;;4968559;28;20101;-77
2022/04/21 09:52:08;;;;;;;30.57;28.60;;;9.80;99.90;;;;;;4984160;28;20053;-76
2022/04/21 09:54:35;;;;;;;30.33;28.35;;;10.10;99.90;;;;;;4971999;28;20293;-75
2022/04/21 09:57:04;;;;;;;30.58;28.58;;;10.30;99.90;;;;;;4992139;28;20061;-76
2022/04/21 09:59:35;;;;;;;31.02;28.83;;;9.70;99.90;;;;;;5005445;28;20066;-76
2022/04/21 10:02:03;;;;;;;31.00;28.80;;;9.60;99.90;;;;;;5003189;28;20684;-76
2022/04/21 10:04:31;;;;;;;30.05;27.83;;;9.90;99.90;;;;;;4991250;28;20042;-76
2022/04/21 10:06:58;;;;;;;31.58;29.10;;;10.20;99.90;;;;;;4984283;28;20061;-77
2022/04/21 10:09:27;;;;;;;29.70;27.50;;;10.40;99.90;;;;;;5005343;28;20096;-76
2022/04/21 10:11:55;;;;;;;28.95;27.15;;;10.70;99.90;;;;;;5002740;28;20076;-76
2022/04/21 10:14:22;;;;;;;30.40;28.33;;;11.00;99.90;;;;;;5002404;28;20062;-76
2022/04/21 10:16:51;;;;;;;29.70;27.73;;;11.10;99.90;;;;;;4971595;28;20038;-76
2022/04/21 10:19:21;;;;;;;30.70;28.40;;;10.70;99.90;;;;;;4984157;28;20746;-76
2022/04/21 10:22:00;;;;;;;30.73;28.50;;;10.70;99.90;;;;;;4983058;28;20536;-76
2022/04/21 10:24:29;;;;;;;30.30;28.08;;;10.90;99.90;;;;;;4979573;28;20046;-76
2022/04/21 10:26:56;;;;;;;30.27;28.08;;;11.00;99.90;;;;;;4994533;28;20729;-78
2022/04/21 10:29:27;;;;;;;30.27;28.25;;;10.70;99.90;;;;;;4980401;28;20124;-76
2022/04/21 10:32:03;;;;;;;31.00;28.88;;;10.70;99.90;;;;;;4985200;28;20124;-76
2022/04/21 10:34:42;;;;;;;30.45;28.55;;;10.90;99.90;;;;;;4984608;28;20069;-76
2022/04/21 10:37:21;;;;;;;30.58;28.33;;;10.60;99.90;;;;;;4967851;28;20663;-75
2022/04/21 10:40:09;;;;;;;31.52;29.02;;;10.90;99.90;;;;;;4985853;28;20042;-77
2022/04/21 10:42:55;;;;;;;31.55;29.35;;;10.70;99.90;;;;;;4973222;28;20042;-76
2022/04/21 10:45:27;;;;;;;30.90;28.52;;;10.60;99.90;;;;;;4989736;28;20081;-76
2022/04/21 10:48:12;;;;;;;31.75;29.52;;;10.70;99.90;;;;;;4986014;28;20046;-76
2022/04/21 10:50:40;;;;;;;30.08;27.83;;;10.70;99.90;;;;;;4985249;28;20045;-76
2022/04/21 10:59:03;;;;;;;31.95;29.40;;;10.60;99.90;;;;;;4991690;28;20124;-75
2022/04/21 11:01:34;;;;;;;31.85;29.55;;;10.50;99.90;;;;;;4992787;28;20763;-76
2022/04/21 11:04:26;;;;;;;30.27;28.17;;;10.50;99.90;;;;;;4992504;28;20136;-76
2022/04/21 11:07:09;;;;;;;31.98;29.42;;;10.50;99.90;;;;;;4975270;28;20079;-76
2022/04/21 11:10:03;;;;;;;30.90;28.48;;;10.60;99.90;;;;;;4998057;28;20046;-76
2022/04/21 11:12:49;;;;;;;30.90;28.55;;;10.90;99.90;;;;;;5000854;28;20057;-76
2022/04/21 11:15:46;;;;;;;35.40;32.22;;;10.70;99.90;;;;;;4982393;28;20046;-76
2022/04/21 11:18:17;;;;;;;30.38;28.48;;;10.80;99.90;;;;;;4992026;28;20050;-76
2022/04/21 11:20:49;;;;;;;31.45;29.27;;;11.00;99.90;;;;;;5002191;28;20038;-76
2022/04/21 11:23:32;;;;;;;33.13;30.67;;;11.10;99.90;;;;;;4984602;28;20049;-76
2022/04/21 11:26:07;;;;;;;30.90;28.20;;;11.20;99.90;;;;;;4983076;28;20047;-76
2022/04/21 11:28:34;;;;;;;31.42;29.00;;;11.20;99.90;;;;;;4970557;28;20501;-76
2022/04/21 11:31:02;;;;;;;30.65;28.55;;;11.50;99.90;;;;;;5001542;28;20125;-76
2022/04/21 11:33:32;;;;;;;31.90;29.55;;;11.30;99.90;;;;;;5002687;28;20088;-76
2022/04/21 11:36:07;;;;;;;30.33;28.42;;;11.10;99.90;;;;;;5003245;28;20529;-76
2022/04/21 11:38:44;;;;;;;30.52;28.63;;;11.00;99.90;;;;;;5001079;28;20153;-75
2022/04/21 11:41:13;;;;;;;29.67;27.48;;;10.80;99.90;;;;;;4981489;28;20125;-76
2022/04/21 11:43:50;;;;;;;30.73;28.20;;;11.10;99.90;;;;;;4981846;28;20062;-76
2022/04/21 11:46:21;;;;;;;32.65;29.55;;;11.50;99.90;;;;;;4992213;28;20038;-76
2022/04/21 11:49:00;;;;;;;31.92;29.33;;;11.70;99.90;;;;;;4997937;28;20077;-76
2022/04/21 11:51:28;;;;;;;32.00;29.77;;;11.60;99.90;;;;;;4983005;28;20065;-77
2022/04/21 11:53:55;;;;;;;31.10;28.83;;;11.50;99.90;;;;;;4983169;28;20050;-76
2022/04/21 11:56:22;;;;;;;30.40;28.45;;;11.70;99.90;;;;;;4982211;28;20038;-77
2022/04/21 11:58:49;;;;;;;29.90;28.05;;;11.60;99.90;;;;;;4999627;28;20050;-76
2022/04/21 12:06:57;;;;;;;30.70;28.30;;;11.10;99.90;;;;;;5003314;28;20041;-76
2022/04/21 12:09:26;;;;;;;30.45;28.05;;;11.30;99.90;;;;;;4997576;28;20069;-77
2022/04/21 12:11:55;;;;;;;29.92;28.02;;;11.50;99.90;;;;;;4991509;28;20513;-76
2022/04/21 12:14:23;;;;;;;29.73;27.80;;;11.90;99.90;;;;;;5001852;28;20076;-76
2022/04/21 12:16:55;;;;;;;30.83;28.65;;;12.30;99.90;;;;;;4982342;28;20092;-76
2022/04/21 12:19:44;;;;;;;31.10;28.73;;;12.50;99.90;;;;;;5002177;28;20677;-77
2022/04/21 12:22:20;;;;;;;31.00;28.70;;;12.50;99.90;;;;;;5000777;28;20046;-76
2022/04/21 12:24:50;;;;;;;31.17;28.88;;;12.70;99.90;;;;;;4995797;28;20049;-76
2022/04/21 12:27:23;;;;;;;32.58;30.02;;;13.00;99.90;;;;;;4993948;28;20046;-76
2022/04/21 12:29:58;;;;;;;29.88;27.50;;;13.30;99.90;;;;;;5007266;28;20104;-77
2022/04/21 12:32:32;;;;;;;30.20;27.98;;;13.30;99.90;;;;;;4973516;28;20114;-77
2022/04/21 12:35:06;;;;;;;29.40;27.47;;;13.00;99.90;;;;;;4986197;28;20085;-77
2022/04/21 12:37:44;;;;;;;30.30;28.10;;;13.00;99.90;;;;;;4971500;28;20055;-76
2022/04/21 12:40:13;;;;;;;31.75;29.50;;;13.10;99.90;;;;;;4971187;28;20046;-77
2022/04/21 12:42:47;;;;;;;31.02;28.88;;;13.00;99.90;;;;;;5003057;28;20049;-77
2022/04/21 12:45:15;;;;;;;30.88;28.45;;;13.00;99.90;;;;;;4987328;28;20046;-77
2022/04/21 12:47:47;;;;;;;31.40;28.83;;;12.90;99.90;;;;;;4989920;28;20085;-77
2022/04/21 12:50:18;;;;;;;30.17;28.05;;;12.90;99.90;;;;;;4992103;28;20511;-77
2022/04/21 12:52:55;;;;;;;29.95;27.92;;;13.10;99.90;;;;;;4995111;28;20149;-78
2022/04/21 12:55:29;;;;;;;29.98;28.02;;;13.00;99.90;;;;;;5003928;28;20042;-77
2022/04/21 12:58:10;;;;;;;29.58;27.38;;;13.00;99.90;;;;;;4982882;28;20136;-77
2022/04/21 13:00:42;;;;;;;29.33;27.13;;;13.00;99.90;;;;;;5009705;28;20780;-78
2022/04/21 13:03:11;;;;;;;31.67;29.55;;;13.20;99.90;;;;;;4995422;28;20084;-77
2022/04/21 13:05:50;;;;;;;31.17;28.80;;;13.60;99.90;;;;;;4974716;28;20097;-77
2022/04/21 13:08:24;;;;;;;30.00;27.90;;;13.80;99.90;;;;;;4998065;28;20108;-77
2022/04/21 13:10:57;;;;;;;29.58;27.65;;;13.90;99.90;;;;;;4990367;28;20181;-77
2022/04/21 13:13:26;;;;;;;30.77;28.65;;;14.00;99.90;;;;;;4986309;28;20050;-76
2022/04/21 13:15:53;;;;;;;29.25;27.17;;;14.20;99.90;;;;;;4987988;28;20046;-77
2022/04/21 13:18:20;;;;;;;29.52;27.52;;;14.10;99.90;;;;;;4980373;28;20270;-76
2022/04/21 13:23:32;;;;;;;29.90;27.98;;;13.30;99.90;;;;;;4998874;28;20108;-76
2022/04/21 13:26:00;;;;;;;28.55;26.75;;;13.50;99.90;;;;;;4983551;28;20472;-77
2022/04/21 13:28:47;;;;;;;29.08;27.17;;;13.50;99.90;;;;;;4995262;28;20058;-76
2022/04/21 13:34:00;;;;;;;;;;;13.50;99.90;;;;;;5000266;28;20050;-78
2022/04/21 13:36:27;;;;;;;31.45;29.45;;;13.90;99.90;;;;;;4986000;28;19929;-77
2022/04/21 13:38:54;;;;;;;30.17;28.27;;;14.10;99.90;;;;;;4985289;28;20062;-78
2022/04/21 13:41:20;;;;;;;30.95;28.80;;;14.80;99.90;;;;;;4970099;28;20054;-76